Bakersfield (BFL/KBFL)

Map

Destinations

Information

Location
Bakersfield, CA
Local Time
11:13 / 11:13 am
GMT Time
18:13 / 6:13 pm
Gates
2
No FAA reported delays
METAR KBFL 201754Z 00000KT 10SM CLR 23/08 A2994 RMK AO2 SLP134 T02280083 10228 20150 58005
TAF KBFL 201720Z 2018/2118 35006KT P6SM SKC FM202300 32008G17KT P6SM FEW250 FM210900 32012G23KT P6SM BKN100